sensor_id;sensor_type;location;lat;lon;timestamp;P1;durP1;ratioP1;P2;durP2;ratioP2
81523;SDS011;70954;49.500;10.416;2023-07-02T00:00:07;1.30;;;1.20;;
81523;SDS011;70954;49.500;10.416;2023-07-02T00:02:34;2.15;;;1.35;;
81523;SDS011;70954;49.500;10.416;2023-07-02T00:05:01;1.98;;;1.40;;
81523;SDS011;70954;49.500;10.416;2023-07-02T00:07:26;1.27;;;1.10;;
81523;SDS011;70954;49.500;10.416;2023-07-02T00:09:52;1.52;;;1.23;;
81523;SDS011;70954;49.500;10.416;2023-07-02T00:12:17;1.40;;;1.20;;
81523;SDS011;70954;49.500;10.416;2023-07-02T00:14:43;1.45;;;1.20;;
81523;SDS011;70954;49.500;10.416;2023-07-02T00:17:08;1.20;;;1.10;;
81523;SDS011;70954;49.500;10.416;2023-07-02T00:19:33;1.52;;;1.20;;
81523;SDS011;70954;49.500;10.416;2023-07-02T00:21:59;1.88;;;1.25;;
81523;SDS011;70954;49.500;10.416;2023-07-02T00:24:24;1.52;;;1.27;;
81523;SDS011;70954;49.500;10.416;2023-07-02T00:26:50;2.00;;;1.40;;
81523;SDS011;70954;49.500;10.416;2023-07-02T00:29:15;1.88;;;1.30;;
81523;SDS011;70954;49.500;10.416;2023-07-02T00:31:41;2.05;;;1.50;;
81523;SDS011;70954;49.500;10.416;2023-07-02T00:34:06;2.10;;;1.50;;
81523;SDS011;70954;49.500;10.416;2023-07-02T00:36:32;1.90;;;1.20;;
81523;SDS011;70954;49.500;10.416;2023-07-02T00:38:57;1.65;;;1.50;;
81523;SDS011;70954;49.500;10.416;2023-07-02T00:41:23;2.10;;;1.60;;
81523;SDS011;70954;49.500;10.416;2023-07-02T00:43:49;1.88;;;1.40;;
81523;SDS011;70954;49.500;10.416;2023-07-02T00:46:18;1.63;;;1.52;;
81523;SDS011;70954;49.500;10.416;2023-07-02T00:48:44;1.77;;;1.52;;
81523;SDS011;70954;49.500;10.416;2023-07-02T00:51:15;2.53;;;1.70;;
81523;SDS011;70954;49.500;10.416;2023-07-02T00:53:45;2.92;;;1.60;;
81523;SDS011;70954;49.500;10.416;2023-07-02T00:56:12;2.40;;;1.63;;
81523;SDS011;70954;49.500;10.416;2023-07-02T00:58:39;3.13;;;1.95;;
81523;SDS011;70954;49.500;10.416;2023-07-02T01:01:06;3.05;;;2.13;;
81523;SDS011;70954;49.500;10.416;2023-07-02T01:03:31;1.70;;;1.60;;
81523;SDS011;70954;49.500;10.416;2023-07-02T01:05:57;1.52;;;1.42;;
81523;SDS011;70954;49.500;10.416;2023-07-02T01:08:22;2.00;;;1.50;;
81523;SDS011;70954;49.500;10.416;2023-07-02T01:10:48;2.03;;;1.70;;
81523;SDS011;70954;49.500;10.416;2023-07-02T01:13:14;2.00;;;1.60;;
81523;SDS011;70954;49.500;10.416;2023-07-02T01:15:44;2.50;;;1.67;;
81523;SDS011;70954;49.500;10.416;2023-07-02T01:18:10;1.98;;;1.50;;
81523;SDS011;70954;49.500;10.416;2023-07-02T01:20:38;3.10;;;1.38;;
81523;SDS011;70954;49.500;10.416;2023-07-02T01:23:04;2.65;;;1.58;;
81523;SDS011;70954;49.500;10.416;2023-07-02T01:25:30;2.05;;;1.42;;
81523;SDS011;70954;49.500;10.416;2023-07-02T01:27:55;2.40;;;1.30;;
81523;SDS011;70954;49.500;10.416;2023-07-02T01:30:21;1.85;;;1.17;;
81523;SDS011;70954;49.500;10.416;2023-07-02T01:32:46;1.48;;;1.38;;
81523;SDS011;70954;49.500;10.416;2023-07-02T01:35:12;2.33;;;1.67;;
81523;SDS011;70954;49.500;10.416;2023-07-02T01:37:37;1.92;;;1.42;;
81523;SDS011;70954;49.500;10.416;2023-07-02T01:40:03;1.92;;;1.40;;
81523;SDS011;70954;49.500;10.416;2023-07-02T01:42:29;1.80;;;1.35;;
81523;SDS011;70954;49.500;10.416;2023-07-02T01:44:54;1.30;;;1.20;;
81523;SDS011;70954;49.500;10.416;2023-07-02T01:47:20;2.10;;;1.40;;
81523;SDS011;70954;49.500;10.416;2023-07-02T01:49:45;1.40;;;1.30;;
81523;SDS011;70954;49.500;10.416;2023-07-02T01:52:11;1.95;;;1.40;;
81523;SDS011;70954;49.500;10.416;2023-07-02T01:54:36;2.65;;;1.60;;
81523;SDS011;70954;49.500;10.416;2023-07-02T01:57:02;2.35;;;1.58;;
81523;SDS011;70954;49.500;10.416;2023-07-02T01:59:27;1.35;;;1.20;;
81523;SDS011;70954;49.500;10.416;2023-07-02T02:01:53;1.63;;;1.30;;
81523;SDS011;70954;49.500;10.416;2023-07-02T02:04:18;2.33;;;1.15;;
81523;SDS011;70954;49.500;10.416;2023-07-02T02:06:44;1.20;;;1.00;;
81523;SDS011;70954;49.500;10.416;2023-07-02T02:09:10;2.03;;;1.40;;
81523;SDS011;70954;49.500;10.416;2023-07-02T02:11:39;1.80;;;1.45;;
81523;SDS011;70954;49.500;10.416;2023-07-02T02:14:06;2.92;;;1.35;;
81523;SDS011;70954;49.500;10.416;2023-07-02T02:16:32;2.72;;;1.40;;
81523;SDS011;70954;49.500;10.416;2023-07-02T02:18:58;2.33;;;1.45;;
81523;SDS011;70954;49.500;10.416;2023-07-02T02:21:23;2.63;;;1.30;;
81523;SDS011;70954;49.500;10.416;2023-07-02T02:23:49;1.98;;;1.42;;
81523;SDS011;70954;49.500;10.416;2023-07-02T02:26:14;1.83;;;1.20;;
81523;SDS011;70954;49.500;10.416;2023-07-02T02:28:40;2.05;;;1.40;;
81523;SDS011;70954;49.500;10.416;2023-07-02T02:31:06;2.42;;;1.45;;
81523;SDS011;70954;49.500;10.416;2023-07-02T02:33:32;1.85;;;1.33;;
81523;SDS011;70954;49.500;10.416;2023-07-02T02:35:58;2.75;;;1.30;;
81523;SDS011;70954;49.500;10.416;2023-07-02T02:38:23;1.98;;;1.20;;
81523;SDS011;70954;49.500;10.416;2023-07-02T02:40:48;2.05;;;1.30;;
81523;SDS011;70954;49.500;10.416;2023-07-02T02:43:14;1.38;;;1.27;;
81523;SDS011;70954;49.500;10.416;2023-07-02T02:45:39;1.63;;;1.25;;
81523;SDS011;70954;49.500;10.416;2023-07-02T02:48:05;2.35;;;1.30;;
81523;SDS011;70954;49.500;10.416;2023-07-02T02:50:31;1.90;;;1.40;;
81523;SDS011;70954;49.500;10.416;2023-07-02T02:52:56;3.10;;;1.38;;
81523;SDS011;70954;49.500;10.416;2023-07-02T02:55:22;2.72;;;1.30;;
81523;SDS011;70954;49.500;10.416;2023-07-02T02:57:47;1.30;;;1.10;;
81523;SDS011;70954;49.500;10.416;2023-07-02T03:00:13;1.85;;;1.35;;
81523;SDS011;70954;49.500;10.416;2023-07-02T03:02:38;1.48;;;1.10;;
81523;SDS011;70954;49.500;10.416;2023-07-02T03:05:04;1.52;;;1.25;;
81523;SDS011;70954;49.500;10.416;2023-07-02T03:07:31;1.65;;;1.20;;
81523;SDS011;70954;49.500;10.416;2023-07-02T03:09:57;1.92;;;1.20;;
81523;SDS011;70954;49.500;10.416;2023-07-02T03:12:22;2.67;;;1.25;;
81523;SDS011;70954;49.500;10.416;2023-07-02T03:14:48;2.20;;;1.23;;
81523;SDS011;70954;49.500;10.416;2023-07-02T03:17:14;2.95;;;1.27;;
81523;SDS011;70954;49.500;10.416;2023-07-02T03:19:39;1.25;;;1.00;;
81523;SDS011;70954;49.500;10.416;2023-07-02T03:22:05;2.17;;;1.25;;
81523;SDS011;70954;49.500;10.416;2023-07-02T03:24:30;1.63;;;1.10;;
81523;SDS011;70954;49.500;10.416;2023-07-02T03:26:55;1.30;;;1.20;;
81523;SDS011;70954;49.500;10.416;2023-07-02T03:29:21;1.50;;;1.30;;
81523;SDS011;70954;49.500;10.416;2023-07-02T03:31:46;2.13;;;1.27;;
81523;SDS011;70954;49.500;10.416;2023-07-02T03:34:12;2.45;;;1.00;;
81523;SDS011;70954;49.500;10.416;2023-07-02T03:36:38;2.17;;;0.90;;
81523;SDS011;70954;49.500;10.416;2023-07-02T03:39:03;2.00;;;1.17;;
81523;SDS011;70954;49.500;10.416;2023-07-02T03:41:29;1.88;;;1.23;;
81523;SDS011;70954;49.500;10.416;2023-07-02T03:43:55;1.58;;;1.10;;
81523;SDS011;70954;49.500;10.416;2023-07-02T03:46:20;1.42;;;1.00;;
81523;SDS011;70954;49.500;10.416;2023-07-02T03:48:46;1.90;;;1.15;;
81523;SDS011;70954;49.500;10.416;2023-07-02T03:51:11;2.30;;;1.08;;
81523;SDS011;70954;49.500;10.416;2023-07-02T03:53:37;1.40;;;1.20;;
81523;SDS011;70954;49.500;10.416;2023-07-02T03:56:02;2.20;;;1.27;;
81523;SDS011;70954;49.500;10.416;2023-07-02T03:58:27;3.58;;;1.10;;
81523;SDS011;70954;49.500;10.416;2023-07-02T04:00:53;2.15;;;1.20;;
81523;SDS011;70954;49.500;10.416;2023-07-02T04:03:18;2.15;;;1.13;;
81523;SDS011;70954;49.500;10.416;2023-07-02T04:05:44;1.85;;;1.17;;
81523;SDS011;70954;49.500;10.416;2023-07-02T04:08:09;1.30;;;1.10;;
81523;SDS011;70954;49.500;10.416;2023-07-02T04:10:35;2.22;;;1.15;;
81523;SDS011;70954;49.500;10.416;2023-07-02T04:13:01;1.45;;;1.10;;
81523;SDS011;70954;49.500;10.416;2023-07-02T04:15:26;2.17;;;1.02;;
81523;SDS011;70954;49.500;10.416;2023-07-02T04:17:52;1.02;;;0.90;;
81523;SDS011;70954;49.500;10.416;2023-07-02T04:20:18;2.25;;;1.48;;
81523;SDS011;70954;49.500;10.416;2023-07-02T04:22:47;2.58;;;1.30;;
81523;SDS011;70954;49.500;10.416;2023-07-02T04:25:13;1.50;;;1.00;;
81523;SDS011;70954;49.500;10.416;2023-07-02T04:27:39;2.03;;;1.23;;
81523;SDS011;70954;49.500;10.416;2023-07-02T04:30:05;2.38;;;1.30;;
81523;SDS011;70954;49.500;10.416;2023-07-02T04:32:31;2.50;;;1.20;;
81523;SDS011;70954;49.500;10.416;2023-07-02T04:34:56;1.85;;;1.40;;
81523;SDS011;70954;49.500;10.416;2023-07-02T04:37:21;1.88;;;1.33;;
81523;SDS011;70954;49.500;10.416;2023-07-02T04:39:47;1.83;;;1.10;;
81523;SDS011;70954;49.500;10.416;2023-07-02T04:42:12;1.90;;;1.25;;
81523;SDS011;70954;49.500;10.416;2023-07-02T04:44:38;1.40;;;1.20;;
81523;SDS011;70954;49.500;10.416;2023-07-02T04:47:03;1.83;;;1.10;;
81523;SDS011;70954;49.500;10.416;2023-07-02T04:49:29;1.67;;;1.27;;
81523;SDS011;70954;49.500;10.416;2023-07-02T04:51:54;3.33;;;1.40;;
81523;SDS011;70954;49.500;10.416;2023-07-02T04:54:20;2.63;;;1.50;;
81523;SDS011;70954;49.500;10.416;2023-07-02T04:56:46;1.75;;;1.23;;
81523;SDS011;70954;49.500;10.416;2023-07-02T04:59:12;2.63;;;1.30;;
81523;SDS011;70954;49.500;10.416;2023-07-02T05:01:37;2.58;;;1.45;;
81523;SDS011;70954;49.500;10.416;2023-07-02T05:04:04;2.30;;;1.60;;
81523;SDS011;70954;49.500;10.416;2023-07-02T05:06:30;3.05;;;1.60;;
81523;SDS011;70954;49.500;10.416;2023-07-02T05:08:56;2.80;;;1.60;;
81523;SDS011;70954;49.500;10.416;2023-07-02T05:11:21;3.45;;;1.92;;
81523;SDS011;70954;49.500;10.416;2023-07-02T05:13:47;4.93;;;2.13;;
81523;SDS011;70954;49.500;10.416;2023-07-02T05:16:12;3.03;;;1.90;;
81523;SDS011;70954;49.500;10.416;2023-07-02T05:18:38;4.57;;;2.00;;
81523;SDS011;70954;49.500;10.416;2023-07-02T05:21:03;3.25;;;1.90;;
81523;SDS011;70954;49.500;10.416;2023-07-02T05:23:29;3.78;;;1.92;;
81523;SDS011;70954;49.500;10.416;2023-07-02T05:25:54;3.92;;;2.25;;
81523;SDS011;70954;49.500;10.416;2023-07-02T05:28:19;3.80;;;1.83;;
81523;SDS011;70954;49.500;10.416;2023-07-02T05:30:45;5.30;;;2.00;;
81523;SDS011;70954;49.500;10.416;2023-07-02T05:33:10;4.10;;;2.13;;
81523;SDS011;70954;49.500;10.416;2023-07-02T05:35:36;3.28;;;2.10;;
81523;SDS011;70954;49.500;10.416;2023-07-02T05:38:01;3.50;;;2.08;;
81523;SDS011;70954;49.500;10.416;2023-07-02T05:40:27;3.15;;;1.95;;
81523;SDS011;70954;49.500;10.416;2023-07-02T05:42:52;2.65;;;1.98;;
81523;SDS011;70954;49.500;10.416;2023-07-02T05:45:18;3.90;;;2.08;;
81523;SDS011;70954;49.500;10.416;2023-07-02T05:47:44;4.47;;;2.60;;
81523;SDS011;70954;49.500;10.416;2023-07-02T05:50:09;5.90;;;2.70;;
81523;SDS011;70954;49.500;10.416;2023-07-02T05:52:35;5.75;;;2.60;;
81523;SDS011;70954;49.500;10.416;2023-07-02T05:55:00;6.38;;;2.83;;
81523;SDS011;70954;49.500;10.416;2023-07-02T05:57:26;5.45;;;2.67;;
81523;SDS011;70954;49.500;10.416;2023-07-02T05:59:51;5.72;;;2.80;;
81523;SDS011;70954;49.500;10.416;2023-07-02T06:02:17;6.50;;;3.10;;
81523;SDS011;70954;49.500;10.416;2023-07-02T06:04:42;6.85;;;3.42;;
81523;SDS011;70954;49.500;10.416;2023-07-02T06:07:07;5.95;;;3.20;;
81523;SDS011;70954;49.500;10.416;2023-07-02T06:09:33;7.18;;;3.75;;
81523;SDS011;70954;49.500;10.416;2023-07-02T06:11:58;9.07;;;3.95;;
81523;SDS011;70954;49.500;10.416;2023-07-02T06:14:24;7.55;;;3.30;;
81523;SDS011;70954;49.500;10.416;2023-07-02T06:16:49;6.68;;;3.47;;
81523;SDS011;70954;49.500;10.416;2023-07-02T06:19:15;5.35;;;3.10;;
81523;SDS011;70954;49.500;10.416;2023-07-02T06:21:40;7.47;;;3.63;;
81523;SDS011;70954;49.500;10.416;2023-07-02T06:24:06;6.85;;;2.75;;
81523;SDS011;70954;49.500;10.416;2023-07-02T06:26:34;6.22;;;2.88;;
81523;SDS011;70954;49.500;10.416;2023-07-02T06:28:59;5.05;;;2.72;;
81523;SDS011;70954;49.500;10.416;2023-07-02T06:31:25;6.47;;;2.85;;
81523;SDS011;70954;49.500;10.416;2023-07-02T06:33:50;7.82;;;3.58;;
81523;SDS011;70954;49.500;10.416;2023-07-02T06:36:16;5.70;;;3.33;;
81523;SDS011;70954;49.500;10.416;2023-07-02T06:38:41;6.10;;;3.40;;
81523;SDS011;70954;49.500;10.416;2023-07-02T06:41:07;6.65;;;3.45;;
81523;SDS011;70954;49.500;10.416;2023-07-02T06:43:32;8.23;;;3.05;;
81523;SDS011;70954;49.500;10.416;2023-07-02T06:45:58;6.85;;;3.00;;
81523;SDS011;70954;49.500;10.416;2023-07-02T06:48:23;7.07;;;3.35;;
81523;SDS011;70954;49.500;10.416;2023-07-02T06:50:48;7.00;;;3.30;;
81523;SDS011;70954;49.500;10.416;2023-07-02T06:53:14;7.40;;;3.40;;
81523;SDS011;70954;49.500;10.416;2023-07-02T06:55:39;7.05;;;3.65;;
81523;SDS011;70954;49.500;10.416;2023-07-02T06:58:05;6.43;;;3.25;;
81523;SDS011;70954;49.500;10.416;2023-07-02T07:00:31;6.35;;;3.25;;
81523;SDS011;70954;49.500;10.416;2023-07-02T07:02:57;5.80;;;2.72;;
81523;SDS011;70954;49.500;10.416;2023-07-02T07:05:23;6.43;;;3.10;;
81523;SDS011;70954;49.500;10.416;2023-07-02T07:07:48;6.97;;;3.00;;
81523;SDS011;70954;49.500;10.416;2023-07-02T07:10:14;8.35;;;3.22;;
81523;SDS011;70954;49.500;10.416;2023-07-02T07:12:39;6.13;;;2.88;;
81523;SDS011;70954;49.500;10.416;2023-07-02T07:15:05;6.05;;;3.22;;
81523;SDS011;70954;49.500;10.416;2023-07-02T07:17:30;6.75;;;3.55;;
81523;SDS011;70954;49.500;10.416;2023-07-02T07:19:56;5.60;;;3.00;;
81523;SDS011;70954;49.500;10.416;2023-07-02T07:22:21;4.15;;;2.63;;
81523;SDS011;70954;49.500;10.416;2023-07-02T07:24:47;4.35;;;2.70;;
81523;SDS011;70954;49.500;10.416;2023-07-02T07:27:12;4.82;;;2.60;;
81523;SDS011;70954;49.500;10.416;2023-07-02T07:29:38;5.55;;;2.83;;
81523;SDS011;70954;49.500;10.416;2023-07-02T07:32:03;3.97;;;2.15;;
81523;SDS011;70954;49.500;10.416;2023-07-02T07:34:29;5.60;;;2.83;;
81523;SDS011;70954;49.500;10.416;2023-07-02T07:36:54;6.50;;;2.72;;
81523;SDS011;70954;49.500;10.416;2023-07-02T07:39:20;4.85;;;2.53;;
81523;SDS011;70954;49.500;10.416;2023-07-02T07:41:48;3.88;;;2.47;;
81523;SDS011;70954;49.500;10.416;2023-07-02T07:44:14;4.32;;;2.50;;
81523;SDS011;70954;49.500;10.416;2023-07-02T07:46:39;5.15;;;3.20;;
81523;SDS011;70954;49.500;10.416;2023-07-02T07:49:05;5.90;;;2.92;;
81523;SDS011;70954;49.500;10.416;2023-07-02T07:51:30;5.50;;;2.83;;
81523;SDS011;70954;49.500;10.416;2023-07-02T07:53:55;6.30;;;3.00;;
81523;SDS011;70954;49.500;10.416;2023-07-02T07:56:21;4.88;;;2.80;;
81523;SDS011;70954;49.500;10.416;2023-07-02T07:58:46;6.95;;;2.78;;
81523;SDS011;70954;49.500;10.416;2023-07-02T08:01:12;4.50;;;2.72;;
81523;SDS011;70954;49.500;10.416;2023-07-02T08:03:37;4.97;;;2.75;;
81523;SDS011;70954;49.500;10.416;2023-07-02T08:06:03;7.18;;;2.80;;
81523;SDS011;70954;49.500;10.416;2023-07-02T08:08:28;5.15;;;2.92;;
81523;SDS011;70954;49.500;10.416;2023-07-02T08:10:54;6.78;;;3.40;;
81523;SDS011;70954;49.500;10.416;2023-07-02T08:13:19;5.25;;;2.97;;
81523;SDS011;70954;49.500;10.416;2023-07-02T08:15:45;5.63;;;2.85;;
81523;SDS011;70954;49.500;10.416;2023-07-02T08:18:10;4.10;;;2.60;;
81523;SDS011;70954;49.500;10.416;2023-07-02T08:20:36;5.28;;;2.63;;
81523;SDS011;70954;49.500;10.416;2023-07-02T08:23:01;6.32;;;3.10;;
81523;SDS011;70954;49.500;10.416;2023-07-02T08:25:27;5.05;;;2.50;;
81523;SDS011;70954;49.500;10.416;2023-07-02T08:27:52;5.07;;;2.83;;
81523;SDS011;70954;49.500;10.416;2023-07-02T08:30:17;6.88;;;2.97;;
81523;SDS011;70954;49.500;10.416;2023-07-02T08:32:45;4.72;;;3.33;;
81523;SDS011;70954;49.500;10.416;2023-07-02T08:35:11;5.47;;;2.55;;
81523;SDS011;70954;49.500;10.416;2023-07-02T08:37:36;4.03;;;2.33;;
81523;SDS011;70954;49.500;10.416;2023-07-02T08:40:01;4.80;;;2.47;;
81523;SDS011;70954;49.500;10.416;2023-07-02T08:42:27;4.60;;;2.65;;
81523;SDS011;70954;49.500;10.416;2023-07-02T08:44:53;6.72;;;3.03;;
81523;SDS011;70954;49.500;10.416;2023-07-02T08:47:19;6.80;;;2.92;;
81523;SDS011;70954;49.500;10.416;2023-07-02T08:49:45;4.55;;;2.60;;
81523;SDS011;70954;49.500;10.416;2023-07-02T08:52:12;4.45;;;2.65;;
81523;SDS011;70954;49.500;10.416;2023-07-02T08:54:38;6.63;;;3.20;;
81523;SDS011;70954;49.500;10.416;2023-07-02T08:57:03;5.05;;;3.40;;
81523;SDS011;70954;49.500;10.416;2023-07-02T08:59:29;4.38;;;2.60;;
81523;SDS011;70954;49.500;10.416;2023-07-02T09:01:55;5.35;;;2.60;;
81523;SDS011;70954;49.500;10.416;2023-07-02T09:04:24;4.35;;;2.42;;
81523;SDS011;70954;49.500;10.416;2023-07-02T09:07:03;5.68;;;2.85;;
81523;SDS011;70954;49.500;10.416;2023-07-02T09:09:30;4.88;;;2.97;;
81523;SDS011;70954;49.500;10.416;2023-07-02T09:11:55;6.68;;;3.70;;
81523;SDS011;70954;49.500;10.416;2023-07-02T09:14:28;5.55;;;2.83;;
81523;SDS011;70954;49.500;10.416;2023-07-02T09:17:07;4.65;;;3.08;;
81523;SDS011;70954;49.500;10.416;2023-07-02T09:19:34;5.28;;;2.70;;
81523;SDS011;70954;49.500;10.416;2023-07-02T09:22:00;4.10;;;2.47;;
81523;SDS011;70954;49.500;10.416;2023-07-02T09:24:26;4.15;;;2.67;;
81523;SDS011;70954;49.500;10.416;2023-07-02T09:26:53;3.70;;;2.45;;
81523;SDS011;70954;49.500;10.416;2023-07-02T09:29:27;5.20;;;3.10;;
81523;SDS011;70954;49.500;10.416;2023-07-02T09:31:58;3.85;;;2.92;;
81523;SDS011;70954;49.500;10.416;2023-07-02T09:34:31;4.68;;;2.40;;
81523;SDS011;70954;49.500;10.416;2023-07-02T09:36:58;5.57;;;3.17;;
81523;SDS011;70954;49.500;10.416;2023-07-02T09:39:28;4.55;;;2.63;;
81523;SDS011;70954;49.500;10.416;2023-07-02T09:41:58;3.28;;;2.25;;
81523;SDS011;70954;49.500;10.416;2023-07-02T09:44:28;3.80;;;2.17;;
81523;SDS011;70954;49.500;10.416;2023-07-02T09:47:14;4.70;;;2.63;;
81523;SDS011;70954;49.500;10.416;2023-07-02T09:52:14;3.92;;;2.15;;
81523;SDS011;70954;49.500;10.416;2023-07-02T09:54:41;3.88;;;2.13;;
81523;SDS011;70954;49.500;10.416;2023-07-02T09:57:07;3.20;;;2.33;;
81523;SDS011;70954;49.500;10.416;2023-07-02T09:59:32;4.75;;;2.75;;
81523;SDS011;70954;49.500;10.416;2023-07-02T10:01:59;4.28;;;2.85;;
81523;SDS011;70954;49.500;10.416;2023-07-02T10:04:24;5.57;;;3.10;;
81523;SDS011;70954;49.500;10.416;2023-07-02T10:06:54;5.70;;;3.05;;
81523;SDS011;70954;49.500;10.416;2023-07-02T10:09:35;4.90;;;2.95;;
81523;SDS011;70954;49.500;10.416;2023-07-02T10:12:02;15.93;;;8.73;;
81523;SDS011;70954;49.500;10.416;2023-07-02T10:14:42;4.75;;;3.20;;
81523;SDS011;70954;49.500;10.416;2023-07-02T10:17:08;4.88;;;2.97;;
81523;SDS011;70954;49.500;10.416;2023-07-02T10:19:34;5.00;;;2.63;;
81523;SDS011;70954;49.500;10.416;2023-07-02T10:22:00;4.18;;;2.60;;
81523;SDS011;70954;49.500;10.416;2023-07-02T10:24:27;3.78;;;2.47;;
81523;SDS011;70954;49.500;10.416;2023-07-02T10:26:59;5.97;;;2.92;;
81523;SDS011;70954;49.500;10.416;2023-07-02T10:29:26;4.68;;;2.80;;
81523;SDS011;70954;49.500;10.416;2023-07-02T10:31:56;4.25;;;2.50;;
81523;SDS011;70954;49.500;10.416;2023-07-02T10:34:32;4.65;;;2.70;;
81523;SDS011;70954;49.500;10.416;2023-07-02T10:37:02;4.57;;;3.03;;
81523;SDS011;70954;49.500;10.416;2023-07-02T10:39:31;5.38;;;2.83;;
81523;SDS011;70954;49.500;10.416;2023-07-02T10:44:32;6.05;;;3.03;;
81523;SDS011;70954;49.500;10.416;2023-07-02T10:46:58;6.00;;;3.20;;
81523;SDS011;70954;49.500;10.416;2023-07-02T10:49:29;5.50;;;3.00;;
81523;SDS011;70954;49.500;10.416;2023-07-02T10:52:02;5.53;;;3.20;;
81523;SDS011;70954;49.500;10.416;2023-07-02T10:57:07;7.47;;;4.13;;
81523;SDS011;70954;49.500;10.416;2023-07-02T10:59:33;7.82;;;3.97;;
81523;SDS011;70954;49.500;10.416;2023-07-02T11:01:58;8.50;;;4.07;;
81523;SDS011;70954;49.500;10.416;2023-07-02T11:04:25;7.88;;;4.10;;
81523;SDS011;70954;49.500;10.416;2023-07-02T11:06:50;8.25;;;4.03;;
81523;SDS011;70954;49.500;10.416;2023-07-02T11:09:16;7.38;;;4.53;;
81523;SDS011;70954;49.500;10.416;2023-07-02T11:11:54;8.55;;;4.10;;
81523;SDS011;70954;49.500;10.416;2023-07-02T11:14:30;9.57;;;3.97;;
81523;SDS011;70954;49.500;10.416;2023-07-02T11:16:57;7.95;;;4.03;;
81523;SDS011;70954;49.500;10.416;2023-07-02T11:19:23;9.88;;;5.00;;
81523;SDS011;70954;49.500;10.416;2023-07-02T11:21:50;7.45;;;4.00;;
81523;SDS011;70954;49.500;10.416;2023-07-02T11:24:25;8.45;;;4.72;;
81523;SDS011;70954;49.500;10.416;2023-07-02T11:26:52;7.72;;;4.53;;
81523;SDS011;70954;49.500;10.416;2023-07-02T11:29:18;8.25;;;4.22;;
81523;SDS011;70954;49.500;10.416;2023-07-02T11:31:44;9.95;;;5.00;;
81523;SDS011;70954;49.500;10.416;2023-07-02T11:34:16;9.38;;;4.60;;
81523;SDS011;70954;49.500;10.416;2023-07-02T11:36:43;8.35;;;4.78;;
81523;SDS011;70954;49.500;10.416;2023-07-02T11:39:09;9.70;;;4.90;;
81523;SDS011;70954;49.500;10.416;2023-07-02T11:41:38;8.77;;;5.03;;
81523;SDS011;70954;49.500;10.416;2023-07-02T11:44:05;10.55;;;5.15;;
81523;SDS011;70954;49.500;10.416;2023-07-02T11:46:31;11.45;;;4.80;;
81523;SDS011;70954;49.500;10.416;2023-07-02T11:48:56;8.10;;;4.25;;
81523;SDS011;70954;49.500;10.416;2023-07-02T11:51:22;8.60;;;4.70;;
81523;SDS011;70954;49.500;10.416;2023-07-02T11:53:48;8.98;;;4.63;;
81523;SDS011;70954;49.500;10.416;2023-07-02T11:56:13;8.05;;;4.38;;
81523;SDS011;70954;49.500;10.416;2023-07-02T11:58:39;8.43;;;4.72;;
81523;SDS011;70954;49.500;10.416;2023-07-02T12:01:05;10.75;;;5.20;;
81523;SDS011;70954;49.500;10.416;2023-07-02T12:03:31;12.18;;;5.80;;
81523;SDS011;70954;49.500;10.416;2023-07-02T12:05:56;9.90;;;4.90;;
81523;SDS011;70954;49.500;10.416;2023-07-02T12:08:22;8.93;;;4.97;;
81523;SDS011;70954;49.500;10.416;2023-07-02T12:10:47;9.05;;;4.95;;
81523;SDS011;70954;49.500;10.416;2023-07-02T12:13:13;9.00;;;4.95;;
81523;SDS011;70954;49.500;10.416;2023-07-02T12:15:38;8.80;;;4.35;;
81523;SDS011;70954;49.500;10.416;2023-07-02T12:18:04;8.88;;;4.40;;
81523;SDS011;70954;49.500;10.416;2023-07-02T12:20:29;7.88;;;4.80;;
81523;SDS011;70954;49.500;10.416;2023-07-02T12:22:55;7.50;;;4.30;;
81523;SDS011;70954;49.500;10.416;2023-07-02T12:25:21;9.90;;;5.20;;
81523;SDS011;70954;49.500;10.416;2023-07-02T12:27:46;11.07;;;5.68;;
81523;SDS011;70954;49.500;10.416;2023-07-02T12:30:12;9.93;;;5.28;;
81523;SDS011;70954;49.500;10.416;2023-07-02T12:32:38;9.85;;;5.40;;
81523;SDS011;70954;49.500;10.416;2023-07-02T12:35:03;12.48;;;6.28;;
81523;SDS011;70954;49.500;10.416;2023-07-02T12:37:31;15.35;;;6.47;;
81523;SDS011;70954;49.500;10.416;2023-07-02T12:39:57;8.85;;;5.10;;
81523;SDS011;70954;49.500;10.416;2023-07-02T12:42:22;12.70;;;6.65;;
81523;SDS011;70954;49.500;10.416;2023-07-02T12:44:48;10.88;;;6.05;;
81523;SDS011;70954;49.500;10.416;2023-07-02T12:47:13;10.20;;;5.28;;
81523;SDS011;70954;49.500;10.416;2023-07-02T12:49:39;10.38;;;5.15;;
81523;SDS011;70954;49.500;10.416;2023-07-02T12:52:04;12.20;;;5.72;;
81523;SDS011;70954;49.500;10.416;2023-07-02T12:54:30;12.63;;;6.35;;
81523;SDS011;70954;49.500;10.416;2023-07-02T12:56:55;10.82;;;6.30;;
81523;SDS011;70954;49.500;10.416;2023-07-02T12:59:21;13.02;;;6.18;;
81523;SDS011;70954;49.500;10.416;2023-07-02T13:01:46;10.55;;;5.43;;
81523;SDS011;70954;49.500;10.416;2023-07-02T13:04:12;10.32;;;5.13;;
81523;SDS011;70954;49.500;10.416;2023-07-02T13:06:37;10.00;;;5.55;;
81523;SDS011;70954;49.500;10.416;2023-07-02T13:09:03;11.88;;;5.72;;
81523;SDS011;70954;49.500;10.416;2023-07-02T13:11:28;9.40;;;5.50;;
81523;SDS011;70954;49.500;10.416;2023-07-02T13:13:53;11.30;;;5.85;;
81523;SDS011;70954;49.500;10.416;2023-07-02T13:16:19;11.68;;;6.18;;
81523;SDS011;70954;49.500;10.416;2023-07-02T13:18:44;9.98;;;5.05;;
81523;SDS011;70954;49.500;10.416;2023-07-02T13:21:10;12.07;;;6.18;;
81523;SDS011;70954;49.500;10.416;2023-07-02T13:23:35;13.13;;;6.22;;
81523;SDS011;70954;49.500;10.416;2023-07-02T13:26:01;15.75;;;7.20;;
81523;SDS011;70954;49.500;10.416;2023-07-02T13:28:26;12.32;;;5.88;;
81523;SDS011;70954;49.500;10.416;2023-07-02T13:30:52;11.68;;;5.45;;
81523;SDS011;70954;49.500;10.416;2023-07-02T13:33:17;13.02;;;7.28;;
81523;SDS011;70954;49.500;10.416;2023-07-02T13:35:43;13.00;;;6.43;;
81523;SDS011;70954;49.500;10.416;2023-07-02T13:38:09;12.00;;;6.38;;
81523;SDS011;70954;49.500;10.416;2023-07-02T13:40:35;13.07;;;6.32;;
81523;SDS011;70954;49.500;10.416;2023-07-02T13:43:00;14.52;;;6.35;;
81523;SDS011;70954;49.500;10.416;2023-07-02T13:45:26;12.65;;;7.07;;
81523;SDS011;70954;49.500;10.416;2023-07-02T13:47:51;16.27;;;6.90;;
81523;SDS011;70954;49.500;10.416;2023-07-02T13:50:17;11.60;;;6.15;;
81523;SDS011;70954;49.500;10.416;2023-07-02T13:52:42;10.70;;;5.53;;
81523;SDS011;70954;49.500;10.416;2023-07-02T13:55:08;15.30;;;7.00;;
81523;SDS011;70954;49.500;10.416;2023-07-02T13:57:33;10.52;;;5.80;;
81523;SDS011;70954;49.500;10.416;2023-07-02T13:59:59;14.93;;;7.43;;
81523;SDS011;70954;49.500;10.416;2023-07-02T14:02:24;10.10;;;5.85;;
81523;SDS011;70954;49.500;10.416;2023-07-02T14:04:50;17.13;;;7.18;;
81523;SDS011;70954;49.500;10.416;2023-07-02T14:07:15;12.65;;;6.43;;
81523;SDS011;70954;49.500;10.416;2023-07-02T14:09:41;13.75;;;5.80;;
81523;SDS011;70954;49.500;10.416;2023-07-02T14:12:06;11.07;;;5.80;;
81523;SDS011;70954;49.500;10.416;2023-07-02T14:14:32;12.82;;;6.53;;
81523;SDS011;70954;49.500;10.416;2023-07-02T14:16:58;12.95;;;6.25;;
81523;SDS011;70954;49.500;10.416;2023-07-02T14:19:23;12.30;;;6.38;;
81523;SDS011;70954;49.500;10.416;2023-07-02T14:21:49;11.07;;;5.70;;
81523;SDS011;70954;49.500;10.416;2023-07-02T14:24:14;13.20;;;7.28;;
81523;SDS011;70954;49.500;10.416;2023-07-02T14:26:40;10.82;;;6.35;;
81523;SDS011;70954;49.500;10.416;2023-07-02T14:29:05;11.00;;;5.55;;
81523;SDS011;70954;49.500;10.416;2023-07-02T14:31:31;10.35;;;5.68;;
81523;SDS011;70954;49.500;10.416;2023-07-02T14:33:56;11.85;;;6.03;;